Time;durP1;ratioP1;P1;durP2;ratioP2;P2;SDS_P1;SDS_P2;PMS_P1;PMS_P2;Temp;Humidity;BMP_temperature;BMP_pressure;BME280_temperature;BME280_humidity;BME280_pressure;Samples;Min_cycle;Max_cycle;Signal;HPM_P1;HPM_P2
2023/02/06 00:00:50;;;;;;;35.53;7.78;;;2.20;99.90;;;;;;5027949;28;20037;-81
2023/02/06 00:03:16;;;;;;;52.13;9.50;;;2.20;99.90;;;;;;5038824;28;20311;-81
2023/02/06 00:05:42;;;;;;;30.23;6.88;;;2.20;99.90;;;;;;5045045;28;20044;-81
2023/02/06 00:08:08;;;;;;;23.77;6.43;;;2.20;99.90;;;;;;5028318;28;20037;-81
2023/02/06 00:10:34;;;;;;;29.83;6.35;;;2.20;99.90;;;;;;5027106;28;20044;-80
2023/02/06 00:13:02;;;;;;;28.17;7.40;;;2.20;99.90;;;;;;5010087;28;20526;-81
2023/02/06 00:15:28;;;;;;;27.50;6.20;;;2.20;99.90;;;;;;5027915;28;20181;-82
2023/02/06 00:17:54;;;;;;;41.40;9.07;;;2.20;99.90;;;;;;5043705;28;20295;-81
2023/02/06 00:20:19;;;;;;;45.50;8.98;;;2.30;99.90;;;;;;5039179;28;20522;-81
2023/02/06 00:22:45;;;;;;;44.67;10.18;;;2.20;99.90;;;;;;5026429;28;20487;-81
2023/02/06 00:25:11;;;;;;;36.42;8.80;;;2.20;99.90;;;;;;4996555;28;20048;-81
2023/02/06 00:27:37;;;;;;;43.35;9.65;;;2.20;99.90;;;;;;5028754;28;20044;-82
2023/02/06 00:30:06;;;;;;;27.15;8.35;;;2.20;99.90;;;;;;5024716;28;20040;-81
2023/02/06 00:32:33;;;;;;;25.42;8.23;;;2.20;99.90;;;;;;5029438;28;20052;-81
2023/02/06 00:34:59;;;;;;;27.67;8.98;;;2.20;99.90;;;;;;5026486;28;20052;-80
2023/02/06 00:37:25;;;;;;;36.00;8.27;;;2.30;99.90;;;;;;5012570;28;20151;-80
2023/02/06 00:39:51;;;;;;;33.77;8.00;;;2.20;99.90;;;;;;5028051;28;20033;-81
2023/02/06 00:42:16;;;;;;;32.95;8.00;;;2.20;99.90;;;;;;5013852;28;20036;-81
2023/02/06 00:44:42;;;;;;;33.30;8.93;;;2.20;99.90;;;;;;5025115;28;20395;-81
2023/02/06 00:47:11;;;;;;;52.47;9.85;;;2.20;99.90;;;;;;5029888;28;20046;-81
2023/02/06 00:49:36;;;;;;;40.60;9.48;;;2.20;99.90;;;;;;5042439;28;20049;-81
2023/02/06 00:52:02;;;;;;;29.73;8.38;;;2.20;99.90;;;;;;5043045;28;20044;-81
2023/02/06 00:54:28;;;;;;;28.75;7.65;;;2.20;99.90;;;;;;5038420;28;20064;-81
2023/02/06 00:56:57;;;;;;;45.42;10.63;;;2.20;99.90;;;;;;5009236;28;20484;-82
2023/02/06 00:59:22;;;;;;;46.95;9.93;;;2.20;99.90;;;;;;5025282;28;20141;-81
2023/02/06 01:01:48;;;;;;;37.85;8.80;;;2.20;99.90;;;;;;5027375;28;20055;-81
2023/02/06 01:04:14;;;;;;;41.88;9.88;;;2.20;99.90;;;;;;5042775;28;20373;-81
2023/02/06 01:06:39;;;;;;;39.70;9.18;;;2.20;99.90;;;;;;5026184;28;20495;-81
2023/02/06 01:09:05;;;;;;;42.45;9.07;;;2.20;99.90;;;;;;5009199;28;20040;-81
2023/02/06 01:11:31;;;;;;;44.35;9.50;;;2.20;99.90;;;;;;5013406;28;20046;-81
2023/02/06 01:13:57;;;;;;;53.03;11.88;;;2.20;99.90;;;;;;5019616;28;20484;-81
2023/02/06 01:16:23;;;;;;;43.35;10.10;;;2.20;99.90;;;;;;5009688;28;20041;-81
2023/02/06 01:18:49;;;;;;;39.15;8.60;;;2.20;99.90;;;;;;5023749;28;20489;-81
2023/02/06 01:21:19;;;;;;;44.83;8.20;;;2.30;99.90;;;;;;5019140;28;20045;-80
2023/02/06 01:23:49;;;;;;;48.47;9.50;;;2.40;99.90;;;;;;5041901;28;20044;-80
2023/02/06 01:26:18;;;;;;;43.10;8.10;;;2.50;99.90;;;;;;5012985;28;20495;-81
2023/02/06 01:28:46;;;;;;;51.70;8.93;;;2.50;99.90;;;;;;5024547;28;20048;-81
2023/02/06 01:31:16;;;;;;;37.17;7.60;;;2.60;99.90;;;;;;5043889;28;20052;-81
2023/02/06 01:33:42;;;;;;;37.67;7.50;;;2.70;99.90;;;;;;5041533;28;20052;-81
2023/02/06 01:36:08;;;;;;;30.92;7.07;;;2.70;99.90;;;;;;5043640;28;20055;-81
2023/02/06 01:38:34;;;;;;;41.88;8.65;;;2.70;99.90;;;;;;5027323;28;20037;-81
2023/02/06 01:41:01;;;;;;;54.60;9.40;;;2.80;99.90;;;;;;5045172;28;20517;-81
2023/02/06 01:43:29;;;;;;;47.88;8.82;;;2.70;99.90;;;;;;5025397;28;20044;-81
2023/02/06 01:45:56;;;;;;;39.95;8.05;;;2.80;99.90;;;;;;5017068;28;20051;-81
2023/02/06 01:48:38;;;;;;;41.45;7.78;;;2.80;99.90;;;;;;5041113;28;20122;-81
2023/02/06 01:51:07;;;;;;;38.65;7.68;;;2.90;99.90;;;;;;5027095;28;20042;-75
2023/02/06 01:53:34;;;;;;;29.55;6.40;;;2.90;99.90;;;;;;5005677;28;20093;-75
2023/02/06 01:56:09;;;;;;;34.80;7.35;;;2.90;99.90;;;;;;5006974;28;20499;-76
2023/02/06 01:58:43;;;;;;;41.75;8.20;;;2.90;99.90;;;;;;5028117;28;20055;-75
2023/02/06 02:01:15;;;;;;;53.38;8.57;;;2.90;99.90;;;;;;5039159;28;20052;-75
2023/02/06 02:03:45;;;;;;;40.70;7.97;;;3.00;99.90;;;;;;5024229;28;20398;-76
2023/02/06 02:06:15;;;;;;;46.13;9.27;;;3.00;99.90;;;;;;5024501;28;20625;-75
2023/02/06 02:08:43;;;;;;;39.35;8.85;;;3.10;99.90;;;;;;5039685;28;20040;-75
2023/02/06 02:11:14;;;;;;;42.00;7.88;;;3.10;99.90;;;;;;5022037;28;20036;-80
2023/02/06 02:13:41;;;;;;;44.63;8.48;;;3.10;99.90;;;;;;5024759;28;20048;-80
2023/02/06 02:16:37;;;;;;;43.42;7.72;;;3.10;99.90;;;;;;5007621;28;20136;-80
2023/02/06 02:19:38;;;;;;;52.72;9.13;;;3.20;99.90;;;;;;5023903;28;20138;-81
2023/02/06 02:22:38;;;;;;;43.47;7.57;;;3.20;99.90;;;;;;5039279;28;20040;-80
2023/02/06 02:25:32;;;;;;;46.50;8.40;;;3.20;99.90;;;;;;5024568;28;20080;-81
2023/02/06 02:28:33;;;;;;;43.80;8.13;;;3.20;99.90;;;;;;5020666;28;20049;-80
2023/02/06 02:31:20;;;;;;;48.30;7.47;;;3.20;99.90;;;;;;5039944;28;20075;-80
2023/02/06 02:33:49;;;;;;;44.40;8.30;;;3.20;99.90;;;;;;5039929;28;20048;-80
2023/02/06 02:36:46;;;;;;;48.78;8.80;;;3.20;99.90;;;;;;5021670;28;20067;-80
2023/02/06 02:39:57;;;;;;;52.95;8.10;;;3.20;99.90;;;;;;5033782;28;20057;-80
2023/02/06 02:42:48;;;;;;;51.30;8.48;;;3.20;99.90;;;;;;4991065;28;20045;-80
2023/02/06 02:45:26;;;;;;;44.70;7.75;;;3.20;99.90;;;;;;5035929;28;20083;-80
2023/02/06 02:48:09;;;;;;;40.25;7.65;;;3.20;99.90;;;;;;5021960;28;20110;-80
2023/02/06 02:50:36;;;;;;;48.20;8.95;;;3.10;99.90;;;;;;5038669;28;20047;-80
2023/02/06 02:53:04;;;;;;;36.33;7.05;;;3.10;99.90;;;;;;5022844;28;20037;-80
2023/02/06 02:55:30;;;;;;;42.70;8.27;;;3.10;99.90;;;;;;5008875;28;20588;-80
2023/02/06 02:58:02;;;;;;;33.13;7.38;;;3.10;99.90;;;;;;5041957;28;20055;-80
2023/02/06 03:00:28;;;;;;;31.55;6.65;;;3.00;99.90;;;;;;5022530;28;20064;-81
2023/02/06 03:02:56;;;;;;;50.45;7.72;;;3.00;99.90;;;;;;5027346;28;20434;-80
2023/02/06 03:05:25;;;;;;;26.17;6.03;;;3.00;99.90;;;;;;5033010;28;20032;-81
2023/02/06 03:08:05;;;;;;;47.22;7.03;;;3.00;99.90;;;;;;5034517;28;20121;-75
2023/02/06 03:10:39;;;;;;;56.95;7.85;;;2.90;99.90;;;;;;5034618;28;20036;-75
2023/02/06 03:13:33;;;;;;;47.67;7.68;;;2.90;99.90;;;;;;5013318;28;20355;-76
2023/02/06 03:16:11;;;;;;;51.15;7.45;;;2.80;99.90;;;;;;5027087;28;20045;-75
2023/02/06 03:18:59;;;;;;;34.55;6.63;;;2.80;99.90;;;;;;5033020;28;20770;-75
2023/02/06 03:21:27;;;;;;;30.95;7.28;;;2.80;99.90;;;;;;5033861;28;20049;-75
2023/02/06 03:23:57;;;;;;;27.65;5.68;;;2.70;99.90;;;;;;5036768;28;20702;-80
2023/02/06 03:26:26;;;;;;;;;;;2.70;99.90;;;;;;5037400;28;20080;-80
2023/02/06 03:28:55;;;;;;;29.95;6.75;;;2.80;99.90;;;;;;5018622;28;19931;-81
2023/02/06 03:31:31;;;;;;;37.88;6.25;;;2.70;99.90;;;;;;5041137;28;20059;-80
2023/02/06 03:34:27;;;;;;;36.65;7.63;;;2.70;99.90;;;;;;5023963;28;20052;-80
2023/02/06 03:36:53;;;;;;;23.33;5.68;;;2.70;99.90;;;;;;5041645;28;20064;-80
2023/02/06 03:39:21;;;;;;;49.60;7.65;;;2.70;99.90;;;;;;5042127;28;20045;-80
2023/02/06 03:41:48;;;;;;;52.45;8.35;;;2.80;99.90;;;;;;5026233;28;20397;-80
2023/02/06 03:44:20;;;;;;;20.30;4.80;;;2.80;99.90;;;;;;5022650;28;20049;-80
2023/02/06 03:46:47;;;;;;;32.33;6.57;;;2.80;99.90;;;;;;5023002;28;20045;-80
2023/02/06 03:49:15;;;;;;;28.23;5.50;;;2.80;99.90;;;;;;5041297;28;20485;-80
2023/02/06 03:52:16;;;;;;;47.50;7.57;;;2.70;99.90;;;;;;5024813;28;20044;-80
2023/02/06 03:54:50;;;;;;;25.48;5.00;;;2.70;99.90;;;;;;5031691;28;20045;-80
2023/02/06 03:57:18;;;;;;;31.73;6.22;;;2.70;99.90;;;;;;5024707;28;20060;-80
2023/02/06 03:59:48;;;;;;;39.53;7.43;;;2.70;99.90;;;;;;5025089;28;20110;-80
2023/02/06 04:02:15;;;;;;;27.17;5.63;;;2.60;99.90;;;;;;4991305;28;20441;-80
2023/02/06 04:04:46;;;;;;;38.47;6.85;;;2.60;99.90;;;;;;5023690;28;20053;-79
2023/02/06 04:07:28;;;;;;;36.08;6.70;;;2.60;99.90;;;;;;5026207;28;20052;-80
2023/02/06 04:09:54;;;;;;;50.00;7.05;;;2.60;99.90;;;;;;5039900;28;20067;-75
2023/02/06 04:12:20;;;;;;;45.10;7.97;;;2.50;99.90;;;;;;4994203;28;21094;-75
2023/02/06 04:14:46;;;;;;;29.58;6.20;;;2.50;99.90;;;;;;5036997;28;20049;-75
2023/02/06 04:17:13;;;;;;;28.58;5.85;;;2.50;99.90;;;;;;5025241;28;20551;-75
2023/02/06 04:19:42;;;;;;;45.75;8.20;;;2.50;99.90;;;;;;5022328;28;20052;-76
2023/02/06 04:22:12;;;;;;;45.30;8.77;;;2.50;99.90;;;;;;5023476;28;20332;-76
2023/02/06 04:24:39;;;;;;;37.03;7.28;;;2.50;99.90;;;;;;5038766;28;20041;-75
2023/02/06 04:27:12;;;;;;;32.33;6.13;;;2.40;99.90;;;;;;5023022;28;20057;-75
2023/02/06 04:29:38;;;;;;;26.10;5.93;;;2.40;99.90;;;;;;5023418;28;20662;-76
2023/02/06 04:32:05;;;;;;;32.88;6.95;;;2.40;99.90;;;;;;5037500;28;20163;-75
2023/02/06 04:34:33;;;;;;;23.45;5.82;;;2.40;99.90;;;;;;5022745;28;20057;-80
2023/02/06 04:36:59;;;;;;;30.23;6.45;;;2.40;99.90;;;;;;5038717;28;20508;-81
2023/02/06 04:39:26;;;;;;;31.77;6.80;;;2.40;99.90;;;;;;5040026;28;20392;-80
2023/02/06 04:41:52;;;;;;;28.70;6.30;;;2.40;99.90;;;;;;5038166;28;20032;-75
2023/02/06 04:44:18;;;;;;;25.88;6.13;;;2.40;99.90;;;;;;5022757;28;20044;-74
2023/02/06 04:46:44;;;;;;;52.45;8.07;;;2.40;99.90;;;;;;5008181;28;20036;-80
2023/02/06 04:49:10;;;;;;;44.88;7.75;;;2.50;99.90;;;;;;5023327;28;20082;-81
2023/02/06 04:51:36;;;;;;;35.22;7.10;;;2.50;99.90;;;;;;5041071;28;20399;-79
2023/02/06 04:54:03;;;;;;;46.13;7.90;;;2.40;99.90;;;;;;5037848;28;20055;-80
2023/02/06 04:56:30;;;;;;;42.40;7.75;;;2.40;99.90;;;;;;5036771;28;20214;-79
2023/02/06 04:58:55;;;;;;;26.37;6.27;;;2.40;99.90;;;;;;5007412;28;20050;-80
2023/02/06 05:01:21;;;;;;;31.30;5.90;;;2.40;99.90;;;;;;5021892;28;20045;-80
2023/02/06 05:03:47;;;;;;;33.93;6.47;;;2.40;99.90;;;;;;5015537;28;20068;-80
2023/02/06 05:06:13;;;;;;;39.15;7.30;;;2.40;99.90;;;;;;5039440;28;20040;-80
2023/02/06 05:08:39;;;;;;;41.63;8.60;;;2.50;99.90;;;;;;5023084;28;20056;-80
2023/02/06 05:11:05;;;;;;;45.58;7.50;;;2.50;99.90;;;;;;5023741;28;20062;-79
2023/02/06 05:13:32;;;;;;;41.55;7.40;;;2.50;99.90;;;;;;5040862;28;20044;-80
2023/02/06 05:16:10;;;;;;;27.05;6.03;;;2.50;99.90;;;;;;5023255;28;20405;-79
2023/02/06 05:18:43;;;;;;;41.03;6.78;;;2.50;99.90;;;;;;5024118;28;20044;-79
2023/02/06 05:21:10;;;;;;;44.10;7.63;;;2.50;99.90;;;;;;5039183;28;20036;-79
2023/02/06 05:23:36;;;;;;;35.13;7.05;;;2.50;99.90;;;;;;5034800;28;20495;-80
2023/02/06 05:26:02;;;;;;;30.38;6.32;;;2.50;99.90;;;;;;5025398;28;20051;-79
2023/02/06 05:28:29;;;;;;;25.08;5.68;;;2.50;99.90;;;;;;5038393;28;20368;-80
2023/02/06 05:30:55;;;;;;;30.38;6.40;;;2.50;99.90;;;;;;5023661;28;20689;-79
2023/02/06 05:33:22;;;;;;;29.13;6.90;;;2.50;99.90;;;;;;5007531;28;20072;-80
2023/02/06 05:35:48;;;;;;;38.05;6.78;;;2.50;99.90;;;;;;5021299;28;20457;-79
2023/02/06 05:38:14;;;;;;;46.40;8.60;;;2.50;99.90;;;;;;5022014;28;20040;-80
2023/02/06 05:40:40;;;;;;;39.42;8.15;;;2.50;99.90;;;;;;5025050;28;20063;-79
2023/02/06 05:43:05;;;;;;;33.22;6.78;;;2.50;99.90;;;;;;5039150;28;20044;-81
2023/02/06 05:45:31;;;;;;;22.05;5.57;;;2.60;99.90;;;;;;5009123;28;20052;-79
2023/02/06 05:47:58;;;;;;;22.80;6.10;;;2.50;99.90;;;;;;5006401;28;20049;-80
2023/02/06 05:50:24;;;;;;;40.42;7.30;;;2.50;99.90;;;;;;5023957;28;20047;-80
2023/02/06 05:52:50;;;;;;;37.20;7.50;;;2.50;99.90;;;;;;5005302;28;20040;-79
2023/02/06 05:55:17;;;;;;;45.78;9.32;;;2.50;99.90;;;;;;5022146;28;20115;-79
2023/02/06 05:57:43;;;;;;;21.27;5.55;;;2.50;99.90;;;;;;5005026;28;20090;-80
2023/02/06 06:00:11;;;;;;;31.42;6.50;;;2.60;99.90;;;;;;5038959;28;20072;-81
2023/02/06 06:02:36;;;;;;;41.07;7.70;;;2.50;99.90;;;;;;5015815;28;20037;-80
2023/02/06 06:05:03;;;;;;;36.33;6.73;;;2.50;99.90;;;;;;5031648;28;20051;-79
2023/02/06 06:07:29;;;;;;;18.77;4.80;;;2.50;99.90;;;;;;5018227;28;20550;-80
2023/02/06 06:09:54;;;;;;;24.30;5.57;;;2.40;99.90;;;;;;5035356;28;20056;-80
2023/02/06 06:12:20;;;;;;;39.37;8.00;;;2.40;99.90;;;;;;5020978;28;20043;-80
2023/02/06 06:14:46;;;;;;;46.97;7.00;;;2.50;99.90;;;;;;5002556;28;20107;-80
2023/02/06 06:17:12;;;;;;;42.45;7.63;;;2.50;99.90;;;;;;5033459;28;20032;-79
2023/02/06 06:19:37;;;;;;;27.52;5.93;;;2.50;99.90;;;;;;5005903;28;20048;-79
2023/02/06 06:22:03;;;;;;;81.07;11.37;;;2.60;99.90;;;;;;5004503;28;20490;-79
2023/02/06 06:24:29;;;;;;;21.80;6.60;;;2.60;99.90;;;;;;5018648;28;20162;-80
2023/02/06 06:26:55;;;;;;;29.58;6.43;;;2.60;99.90;;;;;;4995943;28;20177;-79
2023/02/06 06:29:21;;;;;;;38.97;8.10;;;2.70;99.90;;;;;;5001193;28;20056;-80
2023/02/06 06:31:46;;;;;;;42.73;8.83;;;2.70;99.90;;;;;;5002046;28;20044;-79
2023/02/06 06:34:12;;;;;;;44.83;9.32;;;2.70;99.90;;;;;;5016859;28;20055;-76
2023/02/06 06:36:41;;;;;;;30.67;7.40;;;2.70;99.90;;;;;;5018613;28;20032;-76
2023/02/06 06:39:07;;;;;;;26.13;6.83;;;2.60;99.90;;;;;;5001042;28;20044;-76
2023/02/06 06:41:32;;;;;;;37.10;7.80;;;2.70;99.90;;;;;;4983852;28;20040;-76
2023/02/06 06:43:59;;;;;;;40.05;7.38;;;2.70;99.90;;;;;;5030250;28;20101;-75
2023/02/06 06:46:25;;;;;;;21.30;5.50;;;2.70;99.90;;;;;;5017408;28;20045;-77
2023/02/06 06:48:51;;;;;;;41.10;8.70;;;2.80;99.90;;;;;;5014074;28;20048;-78
2023/02/06 06:51:17;;;;;;;49.42;9.88;;;2.70;99.90;;;;;;5028793;28;20102;-78
2023/02/06 06:53:43;;;;;;;40.25;9.80;;;2.80;99.90;;;;;;5002276;28;20045;-78
2023/02/06 06:56:12;;;;;;;39.05;8.43;;;2.80;99.90;;;;;;5014672;28;20534;-78
2023/02/06 06:58:38;;;;;;;30.05;7.68;;;2.80;99.90;;;;;;5034744;28;20060;-78
2023/02/06 07:01:05;;;;;;;41.63;8.70;;;2.80;99.90;;;;;;5018802;28;20495;-78
2023/02/06 07:03:31;;;;;;;42.30;8.30;;;2.90;99.90;;;;;;5017938;28;20537;-78
2023/02/06 07:05:56;;;;;;;38.58;7.60;;;2.90;99.90;;;;;;5036701;28;20040;-78
2023/02/06 07:08:22;;;;;;;31.33;7.22;;;2.90;99.90;;;;;;5009518;28;20051;-78
2023/02/06 07:10:48;;;;;;;26.67;6.65;;;2.80;99.90;;;;;;5004938;28;20048;-78
2023/02/06 07:13:16;;;;;;;27.20;5.80;;;2.90;99.90;;;;;;5008200;28;20046;-78
2023/02/06 07:15:42;;;;;;;27.80;6.53;;;2.90;99.90;;;;;;5038760;28;20824;-78
2023/02/06 07:18:12;;;;;;;31.05;6.88;;;2.90;99.90;;;;;;5041208;28;20044;-78
2023/02/06 07:20:38;;;;;;;35.10;8.07;;;2.90;99.90;;;;;;5017983;28;20822;-78
2023/02/06 07:23:04;;;;;;;22.33;6.78;;;2.90;99.90;;;;;;5024361;28;20075;-77
2023/02/06 07:25:30;;;;;;;26.33;6.82;;;2.90;99.90;;;;;;5037098;28;20499;-78
2023/02/06 07:27:56;;;;;;;43.47;9.40;;;2.90;99.90;;;;;;5038439;28;20049;-78
2023/02/06 07:30:22;;;;;;;40.65;9.52;;;2.90;99.90;;;;;;5006258;28;20092;-78
2023/02/06 07:32:47;;;;;;;41.25;9.30;;;3.00;99.90;;;;;;5040131;28;20056;-78
2023/02/06 07:35:16;;;;;;;23.45;5.60;;;2.90;99.90;;;;;;5009668;28;20064;-78
2023/02/06 07:37:42;;;;;;;34.00;8.23;;;2.90;99.90;;;;;;4993445;28;20399;-78
2023/02/06 07:40:11;;;;;;;25.80;7.33;;;2.90;99.90;;;;;;5036482;28;20068;-78
2023/02/06 07:42:41;;;;;;;26.35;6.95;;;2.90;99.90;;;;;;5024285;28;20080;-78
2023/02/06 07:45:07;;;;;;;37.25;7.57;;;2.90;99.90;;;;;;5040125;28;20449;-77
2023/02/06 07:47:33;;;;;;;21.88;5.40;;;2.90;99.90;;;;;;4992301;28;20049;-78
2023/02/06 07:49:59;;;;;;;44.53;8.63;;;3.00;99.90;;;;;;5038782;28;20726;-78
2023/02/06 07:52:27;;;;;;;47.45;9.48;;;3.00;99.90;;;;;;5038798;28;20577;-78
2023/02/06 07:54:53;;;;;;;42.78;8.85;;;3.00;99.90;;;;;;5021165;28;20075;-77
2023/02/06 07:57:25;;;;;;;35.33;7.97;;;3.00;99.90;;;;;;5000692;28;20170;-78
2023/02/06 07:59:51;;;;;;;48.22;10.18;;;3.10;99.90;;;;;;5025371;28;20120;-78
2023/02/06 08:02:17;;;;;;;43.45;9.35;;;3.00;99.90;;;;;;5010025;28;20299;-78
2023/02/06 08:04:43;;;;;;;36.63;7.85;;;3.10;99.90;;;;;;5007312;28;20083;-77
2023/02/06 08:07:13;;;;;;;45.35;9.88;;;3.20;99.90;;;;;;4992208;28;20041;-78
2023/02/06 08:09:40;;;;;;;53.75;11.07;;;3.20;99.90;;;;;;5041706;28;20056;-78
2023/02/06 08:12:07;;;;;;;35.08;7.90;;;3.20;99.90;;;;;;5005178;28;20173;-77
2023/02/06 08:14:32;;;;;;;48.22;10.77;;;3.30;99.90;;;;;;5039651;28;20445;-78
2023/02/06 08:16:58;;;;;;;47.90;9.48;;;3.30;99.90;;;;;;5039758;28;20369;-77
2023/02/06 08:19:24;;;;;;;53.58;12.13;;;3.30;99.90;;;;;;5006628;28;20083;-77
2023/02/06 08:21:50;;;;;;;41.90;10.02;;;3.40;99.90;;;;;;5039807;28;20094;-78
2023/02/06 08:24:16;;;;;;;52.35;11.30;;;3.40;99.90;;;;;;5024699;28;20461;-77
2023/02/06 08:26:45;;;;;;;45.75;11.18;;;3.50;99.90;;;;;;5036687;28;20044;-78
2023/02/06 08:29:11;;;;;;;41.70;11.55;;;3.60;99.90;;;;;;5038142;28;20040;-77
2023/02/06 08:31:38;;;;;;;47.63;10.73;;;3.60;99.90;;;;;;5018178;28;20052;-77
2023/02/06 08:34:06;;;;;;;53.95;12.25;;;3.60;99.90;;;;;;5002452;28;20045;-78
2023/02/06 08:36:33;;;;;;;54.17;12.02;;;3.70;99.90;;;;;;5004422;28;20568;-78
2023/02/06 08:39:03;;;;;;;39.65;11.65;;;3.70;99.90;;;;;;4987677;28;20045;-78
2023/02/06 08:41:38;;;;;;;43.60;12.63;;;3.80;99.90;;;;;;5003741;28;20446;-78
2023/02/06 08:44:08;;;;;;;47.25;13.40;;;3.80;99.90;;;;;;5000073;28;20045;-79
2023/02/06 08:46:34;;;;;;;47.28;12.20;;;3.90;99.90;;;;;;5019147;28;20507;-79
2023/02/06 08:49:03;;;;;;;42.80;13.00;;;3.90;99.90;;;;;;4999323;28;20047;-79
2023/02/06 08:51:30;;;;;;;53.53;17.75;;;4.10;99.90;;;;;;5018239;28;20059;-77
2023/02/06 08:54:02;;;;;;;39.63;17.00;;;4.10;99.90;;;;;;4971357;28;20110;-77
2023/02/06 08:56:29;;;;;;;64.95;28.25;;;4.10;99.90;;;;;;5012457;28;20059;-77
2023/02/06 08:58:59;;;;;;;52.95;22.60;;;4.20;99.90;;;;;;4985487;28;20492;-77
2023/02/06 09:01:26;;;;;;;46.03;16.95;;;4.20;99.90;;;;;;5017881;28;20055;-77
2023/02/06 09:03:57;;;;;;;47.65;15.23;;;4.30;99.90;;;;;;5017078;28;20041;-77
2023/02/06 09:06:26;;;;;;;45.88;16.00;;;4.30;99.90;;;;;;5020071;28;20043;-77
2023/02/06 09:08:54;;;;;;;45.35;13.15;;;4.40;99.90;;;;;;5018160;28;20056;-77
2023/02/06 09:11:22;;;;;;;47.38;14.65;;;4.40;99.90;;;;;;5003756;28;20508;-77
2023/02/06 09:13:49;;;;;;;46.33;13.13;;;4.50;99.90;;;;;;5019874;28;20041;-77
2023/02/06 09:16:16;;;;;;;65.88;27.42;;;4.50;99.90;;;;;;5017263;28;20434;-77
2023/02/06 09:18:43;;;;;;;64.85;34.75;;;4.60;99.90;;;;;;5014290;28;20506;-78
2023/02/06 09:21:15;;;;;;;45.13;15.52;;;4.60;99.90;;;;;;5016498;28;20060;-78
2023/02/06 09:23:45;;;;;;;50.05;14.23;;;4.70;99.90;;;;;;5014587;28;20179;-77
2023/02/06 09:26:13;;;;;;;45.88;13.70;;;4.60;99.90;;;;;;5017401;28;20100;-78
2023/02/06 09:28:39;;;;;;;52.67;13.73;;;4.80;99.90;;;;;;5000536;28;20203;-78
2023/02/06 09:31:07;;;;;;;43.58;15.50;;;4.80;99.90;;;;;;5017945;28;20677;-77
2023/02/06 09:33:33;;;;;;;50.15;15.90;;;4.90;99.90;;;;;;5015087;28;20408;-78
2023/02/06 09:36:07;;;;;;;53.08;17.30;;;5.00;99.90;;;;;;5003358;28;20119;-78
2023/02/06 09:38:33;;;;;;;43.55;13.57;;;5.00;99.90;;;;;;5044703;28;20090;-78
2023/02/06 09:41:05;;;;;;;51.95;19.23;;;5.00;99.90;;;;;;5011957;28;20083;-78
2023/02/06 09:43:32;;;;;;;46.78;12.75;;;5.10;99.90;;;;;;5028945;28;20092;-78
2023/02/06 09:46:04;;;;;;;45.10;16.40;;;5.20;99.90;;;;;;5013094;28;20100;-78
2023/02/06 09:48:35;;;;;;;45.60;14.57;;;5.20;99.90;;;;;;5028703;28;20054;-78
2023/02/06 09:51:26;;;;;;;47.95;14.52;;;5.20;99.90;;;;;;5015459;28;20047;-78
2023/02/06 09:54:22;;;;;;;41.85;12.68;;;5.40;99.90;;;;;;5012753;28;20075;-78
2023/02/06 09:57:00;;;;;;;47.75;13.93;;;5.40;99.90;;;;;;5010196;28;20084;-78
2023/02/06 09:59:56;;;;;;;48.08;15.00;;;5.40;99.90;;;;;;5028307;28;20056;-78
2023/02/06 10:02:49;;;;;;;40.63;12.90;;;5.50;99.90;;;;;;5011280;28;20071;-78
2023/02/06 10:05:22;;;;;;;36.08;12.05;;;5.50;99.90;;;;;;5031731;28;20056;-78
2023/02/06 10:08:04;;;;;;;43.05;12.75;;;5.50;99.90;;;;;;5012721;28;20071;-78
2023/02/06 10:10:43;;;;;;;40.88;11.57;;;5.60;99.90;;;;;;5031505;28;20260;-80
2023/02/06 10:13:34;;;;;;;41.95;12.77;;;5.60;99.90;;;;;;5008188;28;20049;-78
2023/02/06 10:16:20;;;;;;;;;;;5.70;99.90;;;;;;4997811;28;20052;-78
2023/02/06 10:18:51;;;;;;;50.08;13.88;;;5.70;99.90;;;;;;5011052;28;20453;-78
2023/02/06 10:21:32;;;;;;;43.95;12.55;;;5.70;99.90;;;;;;5039833;28;20163;-78
2023/02/06 10:24:12;;;;;;;40.97;13.63;;;5.80;99.90;;;;;;5022873;28;20215;-79
2023/02/06 10:26:39;;;;;;;39.45;13.82;;;5.90;99.90;;;;;;5023103;28;20541;-78
2023/02/06 10:29:10;;;;;;;45.80;15.93;;;5.90;99.90;;;;;;5036408;28;20052;-78
2023/02/06 10:32:07;;;;;;;43.65;13.50;;;5.90;99.90;;;;;;5039498;28;20508;-78
2023/02/06 10:34:57;;;;;;;37.55;14.82;;;5.90;99.90;;;;;;5019386;28;20597;-78
2023/02/06 10:37:47;;;;;;;46.35;14.38;;;5.90;99.90;;;;;;5023363;28;20059;-74
2023/02/06 10:40:43;;;;;;;38.20;16.98;;;6.00;99.90;;;;;;5005881;28;20395;-75
2023/02/06 10:43:33;;;;;;;35.40;12.82;;;6.10;99.90;;;;;;5019331;28;20052;-74
2023/02/06 10:46:11;;;;;;;35.03;13.57;;;6.20;99.90;;;;;;5019383;28;20053;-74
2023/02/06 10:48:51;;;;;;;42.63;14.82;;;6.20;99.90;;;;;;5006062;28;20041;-75
2023/02/06 10:51:30;;;;;;;37.30;15.02;;;6.30;99.90;;;;;;5021233;28;20507;-74
2023/02/06 10:54:24;;;;;;;39.90;12.50;;;6.40;99.90;;;;;;5005073;28;20045;-75
2023/02/06 10:56:52;;;;;;;42.90;14.13;;;6.40;99.90;;;;;;5020520;28;20135;-75
2023/02/06 10:59:27;;;;;;;38.00;12.95;;;6.50;99.90;;;;;;5001588;28;20044;-75
2023/02/06 11:02:06;;;;;;;30.73;11.32;;;6.60;99.90;;;;;;5003663;28;20049;-75
2023/02/06 11:04:45;;;;;;;35.95;10.25;;;6.70;99.90;;;;;;4999500;28;20133;-74
2023/02/06 11:07:29;;;;;;;31.98;11.02;;;6.80;99.90;;;;;;5008599;28;20111;-74
2023/02/06 11:09:55;;;;;;;57.22;29.13;;;6.80;99.90;;;;;;5016721;28;20033;-74
2023/02/06 11:12:41;;;;;;;30.55;12.88;;;6.90;99.90;;;;;;5021120;28;20040;-74
2023/02/06 11:15:31;;;;;;;37.03;12.57;;;7.00;99.90;;;;;;5015389;28;20038;-74
2023/02/06 11:17:57;;;;;;;28.58;9.40;;;7.00;99.90;;;;;;5002814;28;20052;-74
2023/02/06 11:20:30;;;;;;;24.40;7.18;;;7.10;99.90;;;;;;5004773;28;20045;-74
2023/02/06 11:23:12;;;;;;;27.60;8.95;;;7.20;99.90;;;;;;5015304;28;20044;-74
2023/02/06 11:25:38;;;;;;;30.05;7.30;;;7.20;99.90;;;;;;4988990;28;20544;-74
2023/02/06 11:28:14;;;;;;;27.52;8.48;;;7.20;99.90;;;;;;5019128;28;20449;-75
2023/02/06 11:30:52;;;;;;;26.92;6.53;;;7.20;99.90;;;;;;4999614;28;20041;-74
2023/02/06 11:33:23;;;;;;;25.23;6.70;;;7.20;99.90;;;;;;5020506;28;20046;-74
2023/02/06 11:35:58;;;;;;;28.13;8.70;;;7.20;99.90;;;;;;5036192;28;20048;-74
2023/02/06 11:38:28;;;;;;;29.48;7.07;;;7.20;99.90;;;;;;5007731;28;20087;-74
2023/02/06 11:41:15;;;;;;;22.17;6.10;;;7.30;99.90;;;;;;5039951;28;20071;-74
2023/02/06 11:43:41;;;;;;;21.88;5.72;;;7.30;99.90;;;;;;5034107;28;20045;-74
2023/02/06 11:46:15;;;;;;;23.65;7.05;;;7.40;99.90;;;;;;5030775;28;20037;-74
2023/02/06 11:48:47;;;;;;;23.60;5.13;;;7.40;99.90;;;;;;5038295;28;20612;-75
2023/02/06 11:51:15;;;;;;;27.23;6.65;;;7.40;99.90;;;;;;5014307;28;21047;-74
2023/02/06 11:54:02;;;;;;;24.85;5.18;;;7.50;99.90;;;;;;5015485;28;20049;-75
2023/02/06 11:56:30;;;;;;;20.55;5.07;;;7.60;99.90;;;;;;5029985;28;20126;-75
2023/02/06 11:59:20;;;;;;;20.45;4.43;;;7.70;99.90;;;;;;5010391;28;20155;-75
2023/02/06 12:01:47;;;;;;;18.00;4.38;;;7.70;99.90;;;;;;5011969;28;20068;-74
2023/02/06 12:04:24;;;;;;;20.55;4.35;;;7.70;99.90;;;;;;5014083;28;20045;-75
2023/02/06 12:06:59;;;;;;;21.15;4.75;;;7.80;99.90;;;;;;5017821;28;20048;-74
2023/02/06 12:09:28;;;;;;;21.05;5.53;;;7.90;99.90;;;;;;5023350;28;20037;-76
2023/02/06 12:11:54;;;;;;;21.17;5.40;;;8.00;99.90;;;;;;5017982;28;20056;-75
2023/02/06 12:14:41;;;;;;;16.45;3.70;;;8.00;99.90;;;;;;5034774;28;20036;-74
2023/02/06 12:17:54;;;;;;;22.45;9.63;;;8.10;99.90;;;;;;5039218;28;20059;-74
2023/02/06 12:20:23;;;;;;;21.98;4.90;;;8.00;99.90;;;;;;5024696;28;20068;-74
2023/02/06 12:23:21;;;;;;;14.03;3.70;;;8.00;99.90;;;;;;5025929;28;20040;-74
2023/02/06 12:25:55;;;;;;;14.48;4.25;;;8.10;99.90;;;;;;5013413;28;20057;-74
2023/02/06 12:28:26;;;;;;;18.63;4.57;;;8.20;99.90;;;;;;5020717;28;20052;-74
2023/02/06 12:30:59;;;;;;;15.93;5.40;;;8.20;99.90;;;;;;5034457;28;20308;-75
2023/02/06 12:33:42;;;;;;;19.58;3.60;;;8.30;99.90;;;;;;5029825;28;20044;-74
2023/02/06 12:36:20;;;;;;;14.90;3.90;;;8.30;99.90;;;;;;5022782;28;20121;-74
2023/02/06 12:38:59;;;;;;;15.98;3.85;;;8.30;99.90;;;;;;5028380;28;20079;-74
2023/02/06 12:41:34;;;;;;;13.38;3.63;;;8.30;99.90;;;;;;5022776;28;20361;-75
2023/02/06 12:44:14;;;;;;;15.82;3.15;;;8.30;99.90;;;;;;5033599;28;20591;-74
2023/02/06 12:46:42;;;;;;;14.27;3.17;;;8.30;99.90;;;;;;5016848;28;20144;-74
2023/02/06 12:49:23;;;;;;;16.65;3.30;;;8.30;99.90;;;;;;5030675;28;20072;-75
2023/02/06 12:52:01;;;;;;;14.70;2.58;;;8.30;99.90;;;;;;5036105;28;20554;-74
2023/02/06 12:54:37;;;;;;;12.13;2.70;;;8.30;99.90;;;;;;5036992;28;20048;-74
2023/02/06 12:57:26;;;;;;;15.68;3.35;;;8.20;99.90;;;;;;5015236;28;20056;-74
2023/02/06 13:00:13;;;;;;;14.80;3.08;;;8.20;99.90;;;;;;5015250;28;20079;-74
2023/02/06 13:03:16;;;;;;;13.65;3.17;;;8.20;99.90;;;;;;5040850;28;20045;-74
2023/02/06 13:05:48;;;;;;;19.02;3.20;;;8.20;99.90;;;;;;5049372;28;20105;-74
2023/02/06 13:08:16;;;;;;;16.90;3.70;;;8.20;99.90;;;;;;5023166;28;20380;-74